Time;durP1;ratioP1;P1;durP2;ratioP2;P2;SDS_P1;SDS_P2;PMS_P1;PMS_P2;Temp;Humidity;BMP_temperature;BMP_pressure;BME280_temperature;BME280_humidity;BME280_pressure;Samples;Min_cycle;Max_cycle;Signal;HPM_P1;HPM_P2
2023/03/19 00:00:47;;;;;;;5.38;4.45;;;;;;;;;;4958550;28;20085;-76
2023/03/19 00:04:44;;;;;;;;;;;;;;;;;;;;;
2023/03/19 00:06:49;;;;;;;7.57;5.30;;;;;;;;;;4945155;28;20039;-77
2023/03/19 00:09:50;;;;;;;7.50;5.03;;;;;;;;;;4944868;28;20035;-77
2023/03/19 00:12:42;;;;;;;8.63;5.00;;;;;;;;;;4994641;28;20506;-77
2023/03/19 00:15:56;;;;;;;;;;;;;;;;;;;;;
2023/03/19 00:21:59;;;;;;;9.55;5.93;;;;;;;;;;4968462;28;20133;-77
2023/03/19 00:25:12;;;;;;;;;;;;;;;;;;;;;
2023/03/19 00:27:57;;;;;;;5.47;4.25;;;;;;;;;;4965036;28;20047;-77
2023/03/19 00:30:36;;;;;;;;;;;;;;;;;;;;;
2023/03/19 00:33:20;;;;;;;9.55;5.07;;;;;;;;;;4972068;28;20465;-77
2023/03/19 00:35:50;;;;;;;5.55;4.07;;;;;;;;;;4964889;28;20117;-78
2023/03/19 00:38:34;;;;;;;4.68;4.13;;;;;;;;;;4961343;28;20067;-77
2023/03/19 00:41:30;;;;;;;5.25;4.05;;;;;;;;;;4978326;28;20043;-76
2023/03/19 00:44:17;;;;;;;4.57;3.78;;;;;;;;;;4968200;28;20058;-77
2023/03/19 00:47:09;;;;;;;6.63;3.67;;;;;;;;;;4985756;28;20042;-77
2023/03/19 00:49:51;;;;;;;5.75;3.25;;;;;;;;;;4991876;28;20104;-77
2023/03/19 00:52:23;;;;;;;5.72;3.40;;;;;;;;;;4977921;28;20035;-77
2023/03/19 00:54:50;;;;;;;6.45;3.30;;;;;;;;;;4973686;28;20046;-77
2023/03/19 00:57:22;;;;;;;5.45;3.35;;;;;;;;;;4999222;28;20029;-76
2023/03/19 01:00:14;;;;;;;4.00;3.20;;;;;;;;;;5001417;28;20096;-76
2023/03/19 01:02:50;;;;;;;4.65;2.83;;;;;;;;;;4984983;28;20508;-75
2023/03/19 01:05:16;;;;;;;3.78;2.83;;;;;;;;;;4984884;28;20602;-75
2023/03/19 01:07:45;;;;;;;3.65;3.13;;;;;;;;;;4981384;28;20033;-75
2023/03/19 01:10:24;;;;;;;3.75;3.15;;;;;;;;;;5004862;28;20493;-76
2023/03/19 01:13:16;;;;;;;3.28;2.70;;;;;;;;;;5000386;28;20056;-76
2023/03/19 01:15:48;;;;;;;3.22;2.92;;;;;;;;;;4975331;28;20244;-77
2023/03/19 01:18:19;;;;;;;3.38;2.70;;;;;;;;;;4999961;28;20054;-76
2023/03/19 01:21:02;;;;;;;4.30;3.00;;;;;;;;;;4985674;28;20049;-76
2023/03/19 01:23:35;;;;;;;5.50;3.10;;;;;;;;;;4985294;28;20050;-75
2023/03/19 01:26:03;;;;;;;5.82;2.60;;;;;;;;;;4985591;28;20044;-74
2023/03/19 01:28:31;;;;;;;3.25;2.53;;;;;;;;;;5001158;28;20032;-75
2023/03/19 01:30:58;;;;;;;3.38;2.42;;;;;;;;;;4986655;28;20104;-75
2023/03/19 01:33:25;;;;;;;7.65;2.90;;;;;;;;;;5035714;28;20049;-76
2023/03/19 01:35:51;;;;;;;5.78;2.70;;;;;;;;;;5021513;28;20025;-76
2023/03/19 01:38:18;;;;;;;5.00;2.47;;;;;;;;;;5019702;28;20037;-76
2023/03/19 01:40:46;;;;;;;5.22;2.50;;;;;;;;;;5025640;28;20021;-76
2023/03/19 01:43:16;;;;;;;4.45;2.83;;;;;;;;;;5020875;28;20233;-76
2023/03/19 01:45:42;;;;;;;3.35;2.75;;;;;;;;;;5027695;28;20029;-76
2023/03/19 01:48:19;;;;;;;3.42;2.65;;;;;;;;;;5026213;28;20032;-76
2023/03/19 01:50:45;;;;;;;6.55;2.88;;;;;;;;;;5042985;28;20031;-76
2023/03/19 01:53:15;;;;;;;2.88;2.42;;;;;;;;;;5022578;28;20126;-76
2023/03/19 01:56:00;;;;;;;;;;;;;;;;;;;;;
2023/03/19 01:58:34;;;;;;;4.20;3.08;;;;;;;;;;5045600;28;20082;-76
2023/03/19 02:01:13;;;;;;;3.88;2.60;;;;;;;;;;5010091;28;20033;-76
2023/03/19 02:03:49;;;;;;;3.25;2.40;;;;;;;;;;5044540;28;20392;-76
2023/03/19 02:06:18;;;;;;;3.22;2.25;;;;;;;;;;5018676;28;20033;-77
2023/03/19 02:08:46;;;;;;;2.92;2.65;;;;;;;;;;5020104;28;20112;-76
2023/03/19 02:11:14;;;;;;;3.42;2.63;;;;;;;;;;5016584;28;21656;-76
2023/03/19 02:13:51;;;;;;;5.68;2.63;;;;;;;;;;5025241;28;20044;-76
2023/03/19 02:16:33;;;;;;;;;;;;;;;;;;;;;
2023/03/19 02:19:02;;;;;;;3.55;2.67;;;;;;;;;;5025845;28;20380;-75
2023/03/19 02:21:38;;;;;;;5.35;2.95;;;;;;;;;;5043966;28;20051;-76
2023/03/19 02:24:43;;;;;;;2.55;2.35;;;;;;;;;;5025252;28;20438;-76
2023/03/19 02:27:20;;;;;;;6.85;2.70;;;;;;;;;;5014587;28;20037;-76
2023/03/19 02:30:05;;;;;;;3.85;2.75;;;;;;;;;;4999136;28;20041;-76
2023/03/19 02:39:12;;;;;;;6.38;2.70;;;;;;;;;;5043350;28;20155;-76
2023/03/19 02:44:55;;;;;;;3.58;2.25;;;;;;;;;;5037611;28;20079;-76
2023/03/19 02:47:24;;;;;;;3.83;2.45;;;;;;;;;;5025945;28;20044;-76
2023/03/19 02:50:19;;;;;;;5.47;2.15;;;;;;;;;;5026306;28;20431;-76
2023/03/19 02:52:48;;;;;;;3.80;2.40;;;;;;;;;;5046045;28;20037;-76
2023/03/19 02:55:37;;;;;;;2.83;2.30;;;;;;;;;;5025845;28;20075;-76
2023/03/19 02:58:05;;;;;;;3.65;2.33;;;;;;;;;;5019751;28;20041;-76
2023/03/19 03:01:01;;;;;;;;;;;;;;;;;;;;;
2023/03/19 03:03:38;;;;;;;7.03;2.40;;;;;;;;;;5027448;28;20501;-76
2023/03/19 03:06:07;;;;;;;5.25;2.33;;;;;;;;;;5024691;28;20154;-76
2023/03/19 03:08:35;;;;;;;2.90;2.20;;;;;;;;;;5027749;28;20021;-77
2023/03/19 03:11:05;;;;;;;4.20;1.83;;;;;;;;;;5044034;28;20379;-79
2023/03/19 03:13:39;;;;;;;3.80;2.00;;;;;;;;;;5025766;28;20030;-78
2023/03/19 03:16:19;;;;;;;5.50;2.30;;;;;;;;;;5046936;28;20032;-78
2023/03/19 03:19:02;;;;;;;1.70;1.60;;;;;;;;;;5018314;28;20136;-78
2023/03/19 03:21:57;;;;;;;5.22;2.03;;;;;;;;;;5022444;28;21277;-76
2023/03/19 03:24:30;;;;;;;3.47;2.08;;;;;;;;;;5042342;28;20426;-76
2023/03/19 03:27:31;;;;;;;2.67;2.20;;;;;;;;;;5010928;28;20087;-76
2023/03/19 03:30:10;;;;;;;2.63;2.25;;;;;;;;;;5042931;28;20737;-75
2023/03/19 03:32:37;;;;;;;3.15;2.47;;;;;;;;;;5040450;28;20046;-76
2023/03/19 03:35:07;;;;;;;5.82;3.00;;;;;;;;;;5045899;28;20432;-76
2023/03/19 03:38:15;;;;;;;7.03;2.45;;;;;;;;;;5042827;28;20473;-76
2023/03/19 03:40:40;;;;;;;3.30;2.50;;;;;;;;;;5037838;28;20063;-76
2023/03/19 03:43:12;;;;;;;6.18;2.63;;;;;;;;;;5043737;28;20029;-76
2023/03/19 03:45:38;;;;;;;3.55;2.65;;;;;;;;;;5023664;28;20029;-77
2023/03/19 03:51:15;;;;;;;;;;;;;;;;;;;;;
2023/03/19 03:53:44;;;;;;;2.75;2.53;;;;;;;;;;5044879;28;20361;-77
2023/03/19 03:56:36;;;;;;;3.45;3.13;;;;;;;;;;5040157;28;20094;-76
2023/03/19 03:59:06;;;;;;;3.58;3.28;;;;;;;;;;5018427;28;20025;-77
2023/03/19 04:02:05;;;;;;;;;;;;;;;;;;;;;
2023/03/19 04:08:02;;;;;;;4.93;3.75;;;;;;;;;;5008533;28;20028;-77
2023/03/19 04:20:42;;;;;;;;;;;;;;;;;;;;;
2023/03/19 04:23:48;;;;;;;7.15;4.88;;;;;;;;;;5008260;28;20109;-77
2023/03/19 04:33:02;;;;;;;6.53;5.53;;;;;;;;;;4979465;28;20030;-76
2023/03/19 04:35:48;;;;;;;8.32;6.20;;;;;;;;;;4967520;28;20411;-76
2023/03/19 04:41:59;;;;;;;11.80;7.05;;;;;;;;;;4974580;28;20038;-77
2023/03/19 04:44:54;;;;;;;10.00;7.53;;;;;;;;;;5015922;28;20124;-77
2023/03/19 04:50:59;;;;;;;13.38;9.77;;;;;;;;;;5012078;28;20065;-77
2023/03/19 04:53:49;;;;;;;12.20;8.55;;;;;;;;;;5014389;28;20029;-77
2023/03/19 04:56:23;;;;;;;13.45;9.65;;;;;;;;;;5013543;28;20110;-78
2023/03/19 04:58:52;;;;;;;16.95;10.77;;;;;;;;;;5021682;28;20037;-76
2023/03/19 05:01:30;;;;;;;13.93;9.98;;;;;;;;;;5032426;28;20036;-77
2023/03/19 05:03:58;;;;;;;17.80;10.93;;;;;;;;;;5027202;28;20025;-76
2023/03/19 05:06:27;;;;;;;14.82;11.77;;;;;;;;;;5025330;28;20159;-77
2023/03/19 05:08:56;;;;;;;15.68;12.00;;;;;;;;;;5017893;28;20032;-78
2023/03/19 05:11:33;;;;;;;17.55;13.15;;;;;;;;;;5026531;28;20043;-78
2023/03/19 05:14:04;;;;;;;16.25;13.23;;;;;;;;;;5011863;28;20040;-78
2023/03/19 05:23:21;;;;;;;21.45;15.73;;;;;;;;;;5026403;28;20095;-79
2023/03/19 05:26:19;;;;;;;;;;;;;;;;;;;;;
2023/03/19 05:32:21;;;;;;;19.30;15.95;;;;;;;;;;5006793;28;20449;-77
2023/03/19 05:37:40;;;;;;;21.65;15.75;;;;;;;;;;4997637;28;20093;-76
2023/03/19 05:40:07;;;;;;;22.48;14.80;;;;;;;;;;4997926;28;20053;-76
2023/03/19 05:42:33;;;;;;;20.30;15.35;;;;;;;;;;5004154;28;20055;-75
2023/03/19 05:45:03;;;;;;;18.05;13.68;;;;;;;;;;4998989;28;20041;-74
2023/03/19 05:47:29;;;;;;;17.40;14.48;;;;;;;;;;4970835;28;20487;-79
2023/03/19 05:49:55;;;;;;;21.67;14.45;;;;;;;;;;4995867;28;20026;-76
2023/03/19 05:52:26;;;;;;;18.50;14.18;;;;;;;;;;4999272;28;20265;-78
2023/03/19 05:55:36;;;;;;;17.85;13.40;;;;;;;;;;4979955;28;20406;-74
2023/03/19 05:58:02;;;;;;;20.88;14.52;;;;;;;;;;5040931;28;20048;-73
2023/03/19 06:00:29;;;;;;;20.48;13.80;;;;;;;;;;5039746;28;20047;-74
2023/03/19 06:02:57;;;;;;;20.27;14.27;;;;;;;;;;5020591;28;20120;-74
2023/03/19 06:05:23;;;;;;;19.08;14.80;;;;;;;;;;5025999;28;20033;-78
2023/03/19 06:07:49;;;;;;;21.85;14.55;;;;;;;;;;5022643;28;20416;-79
2023/03/19 06:10:16;;;;;;;20.63;15.05;;;;;;;;;;5033043;28;20033;-80
2023/03/19 06:12:42;;;;;;;19.10;14.73;;;;;;;;;;5044522;28;20385;-74
2023/03/19 06:21:42;;;;;;;17.17;12.93;;;;;;;;;;5042297;28;20108;-74
2023/03/19 06:24:08;;;;;;;20.02;13.55;;;;;;;;;;5034741;28;20377;-75
2023/03/19 06:26:39;;;;;;;16.63;12.63;;;;;;;;;;5032784;28;20125;-73
2023/03/19 06:32:24;;;;;;;31.75;24.30;;;;;;;;;;5032075;28;20033;-75
2023/03/19 06:35:05;;;;;;;21.63;14.38;;;;;;;;;;5053191;28;20501;-73
2023/03/19 06:37:35;;;;;;;21.38;13.35;;;;;;;;;;5036106;28;20036;-75
2023/03/19 06:40:18;;;;;;;17.90;12.73;;;;;;;;;;5032374;28;20102;-75
2023/03/19 06:42:45;;;;;;;16.38;12.18;;;;;;;;;;5005508;28;20038;-79
2023/03/19 06:45:14;;;;;;;14.25;10.73;;;;;;;;;;5035645;28;20120;-75
2023/03/19 06:47:42;;;;;;;16.05;11.05;;;;;;;;;;5021150;28;20544;-75
2023/03/19 06:50:08;;;;;;;12.32;9.15;;;;;;;;;;5041133;28;20024;-76
2023/03/19 06:52:34;;;;;;;13.38;8.98;;;;;;;;;;5046144;28;20036;-75
2023/03/19 06:55:00;;;;;;;10.60;8.82;;;;;;;;;;5033400;28;20079;-75
2023/03/19 06:57:29;;;;;;;12.55;9.43;;;;;;;;;;5018118;28;21707;-74
2023/03/19 07:00:19;;;;;;;11.25;9.43;;;;;;;;;;5037758;28;20025;-75
2023/03/19 07:05:50;;;;;;;12.95;9.07;;;;;;;;;;4957064;28;20099;-75
2023/03/19 07:08:17;;;;;;;13.48;9.70;;;;;;;;;;5008911;28;20034;-77
2023/03/19 07:10:43;;;;;;;10.93;9.23;;;;;;;;;;5026547;28;20470;-75
2023/03/19 07:13:12;;;;;;;9.75;7.80;;;;;;;;;;5010171;28;20037;-77
2023/03/19 07:15:38;;;;;;;10.82;9.77;;;;;;;;;;4999597;28;20037;-75
2023/03/19 07:18:04;;;;;;;10.10;9.07;;;;;;;;;;5003141;28;20486;-77
2023/03/19 07:20:30;;;;;;;10.77;9.50;;;;;;;;;;4984669;28;20073;-75
2023/03/19 07:22:56;;;;;;;11.50;9.35;;;;;;;;;;4998477;28;20478;-78
2023/03/19 07:25:23;;;;;;;11.43;10.23;;;;;;;;;;5021534;28;20026;-77
2023/03/19 07:27:49;;;;;;;14.32;9.68;;;;;;;;;;5008345;28;20417;-76
2023/03/19 07:30:15;;;;;;;11.65;9.35;;;;;;;;;;5014455;28;20469;-76
2023/03/19 07:32:41;;;;;;;14.85;10.98;;;;;;;;;;5010475;28;20033;-76
2023/03/19 07:35:09;;;;;;;16.80;11.63;;;;;;;;;;5026178;28;20373;-78
2023/03/19 07:37:35;;;;;;;17.88;13.73;;;;;;;;;;5040965;28;20033;-78
2023/03/19 07:40:02;;;;;;;16.80;14.10;;;;;;;;;;5021076;28;20029;-77
2023/03/19 07:42:28;;;;;;;21.13;15.30;;;;;;;;;;5018158;28;20037;-75
2023/03/19 07:44:54;;;;;;;20.80;16.52;;;;;;;;;;5024627;28;20039;-77
2023/03/19 07:47:24;;;;;;;21.70;16.75;;;;;;;;;;5033917;28;20029;-78
2023/03/19 07:49:50;;;;;;;20.70;18.15;;;;;;;;;;5028680;28;20033;-79
2023/03/19 07:52:18;;;;;;;24.83;19.73;;;;;;;;;;5026706;28;20036;-76
2023/03/19 07:54:44;;;;;;;27.55;20.92;;;;;;;;;;5003500;28;20025;-75
2023/03/19 07:57:10;;;;;;;27.00;21.90;;;;;;;;;;5018480;28;20029;-78
2023/03/19 07:59:36;;;;;;;26.75;19.83;;;;;;;;;;5020741;28;20392;-79
2023/03/19 08:02:05;;;;;;;24.05;18.67;;;;;;;;;;5018094;28;20060;-80
2023/03/19 08:04:34;;;;;;;26.98;20.70;;;;;;;;;;4999812;28;20124;-79
2023/03/19 08:07:00;;;;;;;25.33;20.02;;;;;;;;;;5022729;28;20146;-79
2023/03/19 08:09:29;;;;;;;25.40;19.98;;;;;;;;;;5023371;28;20055;-79
2023/03/19 08:11:58;;;;;;;24.85;20.10;;;;;;;;;;5013344;28;20157;-79
2023/03/19 08:14:31;;;;;;;22.52;19.38;;;;;;;;;;4996885;28;20129;-79
2023/03/19 08:16:57;;;;;;;27.02;19.42;;;;;;;;;;5024738;28;20033;-79
2023/03/19 08:19:27;;;;;;;28.27;21.55;;;;;;;;;;5021125;28;20059;-80
2023/03/19 08:21:55;;;;;;;29.02;20.92;;;;;;;;;;5017970;28;20323;-80
2023/03/19 08:24:56;;;;;;;31.23;23.40;;;;;;;;;;5022899;28;20090;-78
2023/03/19 08:30:50;;;;;;;31.52;23.33;;;;;;;;;;4940622;28;20510;-79
2023/03/19 08:33:26;;;;;;;30.17;23.52;;;;;;;;;;5023079;28;20132;-77
2023/03/19 08:36:35;;;;;;;;;;;;;;;;;;;;;
2023/03/19 08:45:27;;;;;;;29.00;22.95;;;;;;;;;;5020003;28;20047;-80
2023/03/19 08:47:57;;;;;;;32.60;24.08;;;;;;;;;;5026028;28;20025;-79
2023/03/19 08:50:26;;;;;;;29.92;22.23;;;;;;;;;;5033181;28;20056;-79
2023/03/19 08:52:56;;;;;;;25.05;20.70;;;;;;;;;;5024573;28;20068;-79
2023/03/19 08:55:25;;;;;;;30.15;22.38;;;;;;;;;;5025626;28;20037;-80
2023/03/19 08:57:51;;;;;;;30.08;23.95;;;;;;;;;;5025779;28;20508;-77
2023/03/19 09:00:18;;;;;;;22.67;18.73;;;;;;;;;;5024960;28;20033;-80
2023/03/19 09:02:44;;;;;;;22.75;18.08;;;;;;;;;;5024172;28;20459;-80
2023/03/19 09:05:10;;;;;;;28.42;19.83;;;;;;;;;;5032535;28;20429;-81
2023/03/19 09:07:37;;;;;;;22.13;17.83;;;;;;;;;;5025043;28;20440;-81
2023/03/19 09:10:03;;;;;;;24.10;19.55;;;;;;;;;;5041001;28;20060;-81
2023/03/19 09:12:29;;;;;;;29.23;19.90;;;;;;;;;;5013458;28;20128;-78
2023/03/19 09:14:55;;;;;;;28.00;22.00;;;;;;;;;;5034548;28;20041;-78
2023/03/19 09:17:24;;;;;;;37.63;24.35;;;;;;;;;;5018293;28;20025;-78
2023/03/19 09:19:51;;;;;;;39.80;26.77;;;;;;;;;;5038426;28;20037;-78
2023/03/19 09:22:17;;;;;;;39.92;28.67;;;;;;;;;;5040298;28;20029;-79
2023/03/19 09:24:56;;;;;;;35.42;27.00;;;;;;;;;;5024707;28;20053;-78
2023/03/19 09:27:31;;;;;;;36.50;26.60;;;;;;;;;;5039736;28;20147;-79
2023/03/19 09:29:58;;;;;;;41.20;27.85;;;;;;;;;;5034049;28;20465;-79
2023/03/19 09:32:24;;;;;;;37.25;26.10;;;;;;;;;;5032631;28;20547;-79
2023/03/19 09:34:50;;;;;;;41.08;26.38;;;;;;;;;;5015112;28;20152;-77
2023/03/19 09:37:17;;;;;;;38.20;26.38;;;;;;;;;;5024132;28;20041;-78
2023/03/19 09:39:44;;;;;;;38.67;26.25;;;;;;;;;;5025621;28;20484;-78
2023/03/19 09:42:29;;;;;;;36.65;25.63;;;;;;;;;;5038148;28;20094;-78
2023/03/19 09:44:55;;;;;;;37.80;26.05;;;;;;;;;;5023210;28;20088;-78
2023/03/19 09:47:30;;;;;;;38.50;26.30;;;;;;;;;;5025516;28;20124;-79
2023/03/19 09:50:15;;;;;;;39.53;25.95;;;;;;;;;;5018789;28;20155;-79
2023/03/19 09:52:49;;;;;;;36.25;24.70;;;;;;;;;;5039788;28;20583;-78
2023/03/19 09:55:20;;;;;;;41.67;25.40;;;;;;;;;;5023673;28;20544;-79
2023/03/19 09:57:47;;;;;;;43.15;26.48;;;;;;;;;;5022793;28;20075;-79
2023/03/19 10:00:21;;;;;;;47.08;26.65;;;;;;;;;;5016257;28;20029;-79
2023/03/19 10:02:53;;;;;;;41.72;26.58;;;;;;;;;;5024614;28;20064;-78
2023/03/19 10:05:40;;;;;;;39.92;25.63;;;;;;;;;;5023360;28;20039;-78
2023/03/19 10:08:12;;;;;;;45.90;29.67;;;;;;;;;;5015395;28;20044;-80
2023/03/19 10:10:41;;;;;;;45.47;27.48;;;;;;;;;;5030841;28;20025;-79
2023/03/19 10:13:11;;;;;;;44.05;27.73;;;;;;;;;;5022445;28;20045;-77
2023/03/19 10:15:38;;;;;;;44.40;28.15;;;;;;;;;;5020229;28;20125;-78
2023/03/19 10:18:18;;;;;;;43.75;26.92;;;;;;;;;;5044279;28;20026;-79
2023/03/19 10:20:47;;;;;;;48.50;27.67;;;;;;;;;;5043824;28;20029;-76
2023/03/19 10:23:19;;;;;;;43.63;28.40;;;;;;;;;;5046774;28;20065;-77
2023/03/19 10:25:46;;;;;;;49.50;28.55;;;;;;;;;;5033156;28;22007;-77
2023/03/19 10:28:15;;;;;;;48.33;28.27;;;;;;;;;;5041153;28;20029;-75
2023/03/19 10:30:45;;;;;;;48.17;27.45;;;;;;;;;;5031968;28;20349;-75
2023/03/19 10:33:21;;;;;;;45.15;27.40;;;;;;;;;;5035599;28;20044;-76
2023/03/19 10:35:49;;;;;;;52.92;28.90;;;;;;;;;;5014257;28;20140;-76
2023/03/19 10:38:26;;;;;;;51.47;28.83;;;;;;;;;;4997705;28;21722;-76
2023/03/19 10:41:03;;;;;;;52.20;29.27;;;;;;;;;;5010825;28;20462;-76
2023/03/19 10:43:29;;;;;;;48.33;28.63;;;;;;;;;;4994324;28;20037;-75
2023/03/19 10:45:57;;;;;;;47.83;26.92;;;;;;;;;;4994654;28;20398;-74
2023/03/19 10:48:24;;;;;;;47.03;26.25;;;;;;;;;;5010377;28;20115;-73
2023/03/19 10:51:01;;;;;;;48.28;29.60;;;;;;;;;;5000508;28;20444;-74
2023/03/19 10:53:34;;;;;;;90.00;53.60;;;;;;;;;;4999586;28;20427;-76
2023/03/19 10:56:02;;;;;;;44.22;27.02;;;;;;;;;;5011268;28;20044;-76
2023/03/19 10:58:30;;;;;;;49.42;27.95;;;;;;;;;;4996785;28;20026;-71
2023/03/19 11:01:02;;;;;;;45.13;26.88;;;;;;;;;;5024704;28;20367;-74
2023/03/19 11:03:32;;;;;;;48.58;27.13;;;;;;;;;;5004083;28;20033;-77
2023/03/19 11:06:07;;;;;;;51.20;29.65;;;;;;;;;;5012879;28;20065;-76
2023/03/19 11:08:49;;;;;;;50.22;27.85;;;;;;;;;;5008030;28;20057;-77
2023/03/19 11:11:25;;;;;;;50.78;28.90;;;;;;;;;;4997902;28;20029;-77
2023/03/19 11:13:51;;;;;;;50.92;28.65;;;;;;;;;;5022643;28;20025;-77
2023/03/19 11:16:17;;;;;;;52.90;28.13;;;;;;;;;;5004114;28;20022;-73
2023/03/19 11:18:46;;;;;;;47.15;26.63;;;;;;;;;;5017099;28;23191;-73
2023/03/19 11:21:39;;;;;;;;;;;;;;;;;;;;;
2023/03/19 11:24:11;;;;;;;43.75;24.95;;;;;;;;;;5016799;28;20462;-72
2023/03/19 11:26:42;;;;;;;48.30;26.80;;;;;;;;;;5022247;28;20025;-75
2023/03/19 11:29:11;;;;;;;47.15;25.10;;;;;;;;;;5005198;28;20107;-72
2023/03/19 11:31:44;;;;;;;45.83;24.15;;;;;;;;;;5008258;28;20041;-71
2023/03/19 11:34:13;;;;;;;38.45;21.60;;;;;;;;;;5016952;28;21919;-73
2023/03/19 11:36:49;;;;;;;51.80;28.15;;;;;;;;;;5037144;28;20088;-75
2023/03/19 11:39:18;;;;;;;48.65;26.98;;;;;;;;;;5021530;28;20051;-74
2023/03/19 11:41:56;;;;;;;40.15;22.60;;;;;;;;;;5027873;28;20041;-72
2023/03/19 11:44:39;;;;;;;41.60;22.58;;;;;;;;;;5041257;28;20033;-76
2023/03/19 11:47:12;;;;;;;45.88;24.00;;;;;;;;;;5029732;28;20025;-76
2023/03/19 11:49:46;;;;;;;38.33;21.50;;;;;;;;;;5034094;28;20486;-76
2023/03/19 11:52:26;;;;;;;37.40;21.25;;;;;;;;;;5024373;28;20061;-76
2023/03/19 11:54:58;;;;;;;40.67;21.65;;;;;;;;;;5017563;28;20029;-74
2023/03/19 11:57:24;;;;;;;36.63;20.52;;;;;;;;;;5032687;28;20175;-77
2023/03/19 12:00:08;;;;;;;36.55;20.73;;;;;;;;;;5020014;28;20037;-76
2023/03/19 12:02:34;;;;;;;38.40;20.90;;;;;;;;;;5024180;28;20082;-76
2023/03/19 12:05:13;;;;;;;40.35;22.13;;;;;;;;;;5041153;28;20052;-77
2023/03/19 12:07:42;;;;;;;35.88;20.52;;;;;;;;;;5021140;28;20036;-77
2023/03/19 12:10:28;;;;;;;40.83;23.23;;;;;;;;;;5022763;28;20093;-77
2023/03/19 12:13:12;;;;;;;36.53;18.65;;;;;;;;;;5024391;28;20040;-76
2023/03/19 12:15:59;;;;;;;35.60;19.63;;;;;;;;;;5025698;28;20189;-76
2023/03/19 12:21:43;;;;;;;33.63;19.70;;;;;;;;;;5026447;28;20157;-76
2023/03/19 12:24:28;;;;;;;37.83;19.83;;;;;;;;;;5048990;28;20120;-76
2023/03/19 12:30:22;;;;;;;;;;;;;;;;;;;;;
2023/03/19 12:33:21;;;;;;;40.78;21.58;;;;;;;;;;4982715;28;20037;-76
2023/03/19 12:35:50;;;;;;;41.28;23.98;;;;;;;;;;5016070;28;20033;-83
2023/03/19 12:38:25;;;;;;;62.28;34.42;;;;;;;;;;5032160;28;20052;-79
2023/03/19 12:40:54;;;;;;;52.88;29.60;;;;;;;;;;5029612;28;20029;-79
2023/03/19 12:43:29;;;;;;;36.42;21.15;;;;;;;;;;5037590;28;20032;-78
2023/03/19 12:46:14;;;;;;;34.70;20.30;;;;;;;;;;5028166;28;20034;-78
2023/03/19 12:48:52;;;;;;;32.05;19.67;;;;;;;;;;5021109;28;20029;-81
2023/03/19 12:51:21;;;;;;;30.83;19.00;;;;;;;;;;5020243;28;20431;-78
2023/03/19 12:53:55;;;;;;;33.05;17.20;;;;;;;;;;5024315;28;20029;-77
2023/03/19 12:56:28;;;;;;;32.53;19.00;;;;;;;;;;5032500;28;20033;-76
2023/03/19 12:58:59;;;;;;;31.15;17.17;;;;;;;;;;5032087;28;20037;-77
2023/03/19 13:01:41;;;;;;;32.08;17.15;;;;;;;;;;5023686;28;20029;-77
2023/03/19 13:04:07;;;;;;;30.08;16.17;;;;;;;;;;5044483;28;20033;-77
2023/03/19 13:06:53;;;;;;;32.65;17.45;;;;;;;;;;5026236;28;20032;-77
2023/03/19 13:09:29;;;;;;;30.00;15.80;;;;;;;;;;5038447;28;20086;-77
2023/03/19 13:12:01;;;;;;;29.92;15.88;;;;;;;;;;5026656;28;20029;-77
2023/03/19 13:14:48;;;;;;;30.92;17.90;;;;;;;;;;5034070;28;20383;-76
2023/03/19 13:17:35;;;;;;;32.47;17.00;;;;;;;;;;5011845;28;20029;-77
2023/03/19 13:20:06;;;;;;;35.65;17.48;;;;;;;;;;5021092;28;20060;-77
2023/03/19 13:22:34;;;;;;;33.40;17.73;;;;;;;;;;5015408;28;20033;-76
2023/03/19 13:25:01;;;;;;;32.50;17.55;;;;;;;;;;5038484;28;20037;-76
2023/03/19 13:27:32;;;;;;;34.25;20.05;;;;;;;;;;5037338;28;21348;-77
2023/03/19 13:29:59;;;;;;;42.25;23.00;;;;;;;;;;5023219;28;20377;-79
2023/03/19 13:32:40;;;;;;;64.57;36.95;;;;;;;;;;5039830;28;20056;-78
2023/03/19 13:35:30;;;;;;;36.88;19.73;;;;;;;;;;5022259;28;20493;-78
2023/03/19 13:37:59;;;;;;;38.35;20.85;;;;;;;;;;5014532;28;20410;-77
2023/03/19 13:40:41;;;;;;;35.58;19.73;;;;;;;;;;5020803;28;20358;-78
2023/03/19 13:43:42;;;;;;;37.97;20.55;;;;;;;;;;5026780;28;20041;-79
2023/03/19 13:46:11;;;;;;;36.53;20.42;;;;;;;;;;4953740;28;20069;-77
2023/03/19 13:48:38;;;;;;;32.17;19.60;;;;;;;;;;5013200;28;20118;-77
2023/03/19 13:51:05;;;;;;;37.25;20.23;;;;;;;;;;5031458;28;20041;-78
2023/03/19 13:53:34;;;;;;;33.15;20.08;;;;;;;;;;5025514;28;20090;-77
2023/03/19 13:56:03;;;;;;;32.38;19.23;;;;;;;;;;5037878;28;20033;-77
2023/03/19 13:58:48;;;;;;;36.63;20.92;;;;;;;;;;5026330;28;20389;-77
2023/03/19 14:01:26;;;;;;;33.15;19.88;;;;;;;;;;5013811;28;20121;-77
2023/03/19 14:03:55;;;;;;;29.50;18.15;;;;;;;;;;5023350;28;20489;-77
2023/03/19 14:06:36;;;;;;;39.75;24.15;;;;;;;;;;5016936;28;20052;-76
2023/03/19 14:09:03;;;;;;;35.72;19.50;;;;;;;;;;5036281;28;20119;-78
2023/03/19 14:11:33;;;;;;;31.90;18.90;;;;;;;;;;5023622;28;20358;-83
2023/03/19 14:14:05;;;;;;;32.35;19.05;;;;;;;;;;5020541;28;20397;-78
2023/03/19 14:16:40;;;;;;;34.03;18.80;;;;;;;;;;5023732;28;20033;-79
2023/03/19 14:19:12;;;;;;;40.78;22.00;;;;;;;;;;5045472;28;20020;-79
2023/03/19 14:21:42;;;;;;;45.70;23.08;;;;;;;;;;5045165;28;20024;-76
2023/03/19 14:24:27;;;;;;;45.88;22.92;;;;;;;;;;5032069;28;20028;-76
2023/03/19 14:26:53;;;;;;;48.38;24.00;;;;;;;;;;5050317;28;20021;-76
2023/03/19 14:29:23;;;;;;;44.13;23.50;;;;;;;;;;5032654;28;20041;-75
2023/03/19 14:31:51;;;;;;;52.55;28.50;;;;;;;;;;5047970;28;20116;-75
2023/03/19 14:34:26;;;;;;;51.10;24.55;;;;;;;;;;5050898;28;20108;-74
2023/03/19 14:36:55;;;;;;;45.25;25.48;;;;;;;;;;5043099;28;20397;-75
2023/03/19 14:39:23;;;;;;;44.17;25.05;;;;;;;;;;5040439;28;20076;-75
2023/03/19 14:41:51;;;;;;;45.75;25.65;;;;;;;;;;5054188;28;20447;-75
2023/03/19 14:44:40;;;;;;;45.30;25.98;;;;;;;;;;5052097;28;20461;-75
2023/03/19 14:47:25;;;;;;;47.65;25.70;;;;;;;;;;5024669;28;20061;-75
2023/03/19 14:49:57;;;;;;;47.13;26.67;;;;;;;;;;5053179;28;20049;-75
2023/03/19 14:52:49;;;;;;;60.50;31.30;;;;;;;;;;5052825;28;20441;-75
2023/03/19 14:55:16;;;;;;;50.00;29.52;;;;;;;;;;5026152;28;20040;-75
2023/03/19 14:57:42;;;;;;;51.47;27.60;;;;;;;;;;5035723;28;20245;-76
2023/03/19 15:00:17;;;;;;;60.70;29.92;;;;;;;;;;5053175;28;20021;-76
2023/03/19 15:02:45;;;;;;;59.72;28.33;;;;;;;;;;5049685;28;20040;-76
2023/03/19 15:05:20;;;;;;;57.25;28.38;;;;;;;;;;5051388;28;20029;-78
2023/03/19 15:07:48;;;;;;;55.50;27.20;;;;;;;;;;5040127;28;20037;-76
2023/03/19 15:10:18;;;;;;;59.25;27.27;;;;;;;;;;5053661;28;20325;-75
2023/03/19 15:13:03;;;;;;;56.90;29.98;;;;;;;;;;5047654;28;20056;-76
2023/03/19 15:15:48;;;;;;;57.25;28.05;;;;;;;;;;5053804;28;20033;-77
2023/03/19 15:18:18;;;;;;;54.10;27.80;;;;;;;;;;5039230;28;20385;-77
2023/03/19 15:20:53;;;;;;;48.05;26.45;;;;;;;;;;5019367;28;20028;-76
2023/03/19 15:23:20;;;;;;;47.95;23.80;;;;;;;;;;5038957;28;20037;-76
2023/03/19 15:25:48;;;;;;;50.30;23.98;;;;;;;;;;5044345;28;20032;-76
2023/03/19 15:28:15;;;;;;;40.42;22.83;;;;;;;;;;5025003;28;20508;-74
2023/03/19 15:30:42;;;;;;;41.60;21.10;;;;;;;;;;5037101;28;20485;-76
2023/03/19 15:33:25;;;;;;;46.08;25.73;;;;;;;;;;5024101;28;20037;-77
2023/03/19 15:35:52;;;;;;;47.50;24.33;;;;;;;;;;5040126;28;20045;-77
2023/03/19 15:38:18;;;;;;;45.67;24.52;;;;;;;;;;5019645;28;20272;-75
2023/03/19 15:41:08;;;;;;;44.30;24.73;;;;;;;;;;5024180;28;20364;-75
2023/03/19 15:43:38;;;;;;;36.53;21.85;;;;;;;;;;5024997;28;20037;-74
2023/03/19 15:46:06;;;;;;;41.45;21.58;;;;;;;;;;5012219;28;20037;-75
2023/03/19 15:48:38;;;;;;;38.78;21.17;;;;;;;;;;5040645;28;20085;-75
2023/03/19 15:51:09;;;;;;;40.63;21.30;;;;;;;;;;5017951;28;20136;-75
2023/03/19 15:53:36;;;;;;;45.03;21.98;;;;;;;;;;5017239;28;20071;-74
2023/03/19 15:56:03;;;;;;;50.05;24.63;;;;;;;;;;5023958;28;20068;-74
2023/03/19 15:58:31;;;;;;;44.78;22.25;;;;;;;;;;5022331;28;20028;-75
2023/03/19 16:00:59;;;;;;;40.58;21.23;;;;;;;;;;5041054;28;20328;-75
2023/03/19 16:03:27;;;;;;;36.83;19.75;;;;;;;;;;5015641;28;20485;-75
2023/03/19 16:06:04;;;;;;;46.50;22.50;;;;;;;;;;5014196;28;20037;-74
2023/03/19 16:08:31;;;;;;;57.97;24.83;;;;;;;;;;5023028;28;20117;-76
2023/03/19 16:11:20;;;;;;;57.55;23.42;;;;;;;;;;5019625;28;20392;-77
2023/03/19 16:13:54;;;;;;;61.55;25.80;;;;;;;;;;5011485;28;20029;-75
2023/03/19 16:16:22;;;;;;;65.70;24.55;;;;;;;;;;5019837;28;20030;-75
2023/03/19 16:21:45;;;;;;;72.25;26.33;;;;;;;;;;5033799;28;20044;-76
2023/03/19 16:24:19;;;;;;;66.78;26.33;;;;;;;;;;4996668;28;20044;-75
2023/03/19 16:26:47;;;;;;;66.03;24.58;;;;;;;;;;5011135;28;20478;-74
2023/03/19 16:29:22;;;;;;;80.82;28.15;;;;;;;;;;5021390;28;20465;-76
2023/03/19 16:31:52;;;;;;;67.43;24.17;;;;;;;;;;5037718;28;20024;-76
2023/03/19 16:34:25;;;;;;;73.85;26.20;;;;;;;;;;5035237;28;20041;-75
2023/03/19 16:36:51;;;;;;;70.53;25.42;;;;;;;;;;5032477;28;20049;-75
2023/03/19 16:39:29;;;;;;;63.15;23.58;;;;;;;;;;5009954;28;20053;-74
2023/03/19 16:42:11;;;;;;;65.18;25.40;;;;;;;;;;5038234;28;20535;-76
2023/03/19 16:44:42;;;;;;;61.25;23.83;;;;;;;;;;5018927;28;20025;-76
2023/03/19 16:47:12;;;;;;;62.08;23.05;;;;;;;;;;5010199;28;20612;-75